Time;durP1;ratioP1;P1;durP2;ratioP2;P2;SDS_P1;SDS_P2;PMS_P1;PMS_P2;Temp;Humidity;BMP_temperature;BMP_pressure;BME280_temperature;BME280_humidity;BME280_pressure;Samples;Min_cycle;Max_cycle;Signal;HPM_P1;HPM_P2
2022/02/18 00:00:46;;;;;;;22.53;21.53;;;16.80;86.70;;;;;;5053271;28;20453;-40
2022/02/18 00:03:14;;;;;;;22.10;21.20;;;16.80;87.90;;;;;;5053366;28;20448;-43
2022/02/18 00:05:42;;;;;;;22.47;21.47;;;16.80;87.70;;;;;;5053459;28;20506;-41
2022/02/18 00:08:09;;;;;;;22.13;21.13;;;16.80;87.90;;;;;;5053066;28;20937;-42
2022/02/18 00:10:36;;;;;;;22.37;21.27;;;16.80;88.10;;;;;;5053134;28;20467;-42
2022/02/18 00:13:03;;;;;;;22.83;21.73;;;16.80;88.40;;;;;;5053082;28;20480;-41
2022/02/18 00:15:30;;;;;;;22.00;21.10;;;16.80;89.10;;;;;;5064085;28;20467;-41
2022/02/18 00:18:01;;;;;;;22.23;21.23;;;16.70;88.50;;;;;;5073070;28;20846;-42
2022/02/18 00:20:28;;;;;;;22.77;21.67;;;16.70;88.80;;;;;;5072952;28;20495;-42
2022/02/18 00:22:55;;;;;;;22.73;21.63;;;16.70;88.90;;;;;;5069122;28;20824;-42
2022/02/18 00:25:21;;;;;;;22.40;21.40;;;16.70;88.90;;;;;;5052978;28;20459;-42
2022/02/18 00:27:48;;;;;;;22.37;21.47;;;16.70;89.90;;;;;;5052838;28;20441;-41
2022/02/18 00:30:15;;;;;;;22.60;21.60;;;16.70;89.00;;;;;;5052769;28;20460;-42
2022/02/18 00:32:42;;;;;;;22.43;21.33;;;16.70;90.00;;;;;;5054106;28;20480;-42
2022/02/18 00:35:10;;;;;;;22.20;21.20;;;16.70;89.90;;;;;;5071987;28;20446;-42
2022/02/18 00:37:37;;;;;;;23.03;21.93;;;16.70;89.80;;;;;;5072937;28;20446;-41
2022/02/18 00:40:05;;;;;;;22.50;21.40;;;16.70;90.10;;;;;;5072281;28;20472;-42
2022/02/18 00:42:32;;;;;;;22.93;21.70;;;16.70;90.30;;;;;;5072410;28;20781;-44
2022/02/18 00:44:58;;;;;;;22.27;21.30;;;16.70;90.00;;;;;;5052568;28;20448;-41
2022/02/18 00:47:25;;;;;;;22.20;21.20;;;16.60;90.10;;;;;;5052554;28;20440;-42
2022/02/18 00:49:52;;;;;;;22.70;21.40;;;16.70;90.50;;;;;;5052052;28;20518;-42
2022/02/18 00:52:20;;;;;;;22.80;21.60;;;16.60;90.70;;;;;;5052367;28;20452;-42
2022/02/18 00:54:47;;;;;;;21.83;20.93;;;16.70;90.50;;;;;;5070721;28;20448;-41
2022/02/18 00:57:13;;;;;;;22.30;21.30;;;16.70;90.50;;;;;;5072317;28;20471;-41
2022/02/18 00:59:40;;;;;;;21.90;20.90;;;16.60;90.70;;;;;;5071913;28;20984;-42
2022/02/18 01:02:07;;;;;;;22.47;21.37;;;16.70;90.90;;;;;;5072087;28;20450;-41
2022/02/18 01:04:34;;;;;;;22.30;21.33;;;16.70;91.20;;;;;;5055236;28;20451;-42
2022/02/18 01:07:01;;;;;;;22.40;21.10;;;16.70;90.90;;;;;;5052235;28;20506;-41
2022/02/18 01:09:29;;;;;;;22.60;21.60;;;16.70;91.10;;;;;;5051908;28;20460;-43
2022/02/18 01:11:56;;;;;;;23.03;21.93;;;16.70;91.00;;;;;;5052172;28;20444;-43
2022/02/18 01:14:23;;;;;;;22.63;21.43;;;16.70;91.30;;;;;;5066864;28;20448;-41
2022/02/18 01:16:50;;;;;;;22.03;21.03;;;16.60;91.10;;;;;;5071408;28;20911;-42
2022/02/18 01:19:17;;;;;;;22.57;21.47;;;16.70;91.20;;;;;;5071722;28;20482;-42
2022/02/18 01:21:44;;;;;;;23.03;22.03;;;16.60;91.30;;;;;;5071933;28;20446;-42
2022/02/18 01:24:11;;;;;;;22.70;21.60;;;16.60;91.50;;;;;;5058442;28;20484;-41
2022/02/18 01:26:39;;;;;;;22.13;21.13;;;16.60;91.00;;;;;;5051833;28;20451;-41
2022/02/18 01:29:06;;;;;;;21.90;20.90;;;16.60;91.50;;;;;;5051443;28;20479;-41
2022/02/18 01:31:33;;;;;;;22.13;21.13;;;16.60;91.50;;;;;;5051866;28;20452;-41
2022/02/18 01:34:00;;;;;;;23.27;21.97;;;16.70;91.60;;;;;;5062882;28;20439;-41
2022/02/18 01:36:27;;;;;;;22.30;21.30;;;16.60;91.30;;;;;;5071834;28;20620;-41
2022/02/18 01:38:54;;;;;;;22.60;21.60;;;16.60;91.50;;;;;;5071428;28;20471;-41
2022/02/18 01:41:21;;;;;;;23.00;21.80;;;16.70;91.70;;;;;;5071717;28;20455;-42
2022/02/18 01:43:51;;;;;;;22.23;21.23;;;16.60;91.80;;;;;;5067192;28;20471;-41
2022/02/18 01:46:18;;;;;;;22.07;21.07;;;16.60;92.20;;;;;;5071545;28;20448;-41
2022/02/18 01:48:46;;;;;;;22.23;21.23;;;16.60;92.00;;;;;;5071183;28;20471;-42
2022/02/18 01:51:13;;;;;;;21.93;20.93;;;16.70;91.90;;;;;;5071695;28;20445;-41
2022/02/18 01:53:40;;;;;;;22.33;21.17;;;16.60;91.90;;;;;;5063118;28;20433;-41
2022/02/18 01:56:08;;;;;;;21.90;20.80;;;16.60;92.00;;;;;;5051513;28;20441;-41
2022/02/18 01:58:36;;;;;;;22.00;21.00;;;16.60;92.00;;;;;;5051224;28;21002;-41
2022/02/18 02:01:05;;;;;;;22.20;21.20;;;16.60;92.00;;;;;;5076005;22;20475;-46
2022/02/18 02:03:32;;;;;;;21.90;21.00;;;16.60;92.00;;;;;;5073369;28;20480;-48
2022/02/18 02:05:59;;;;;;;22.20;21.20;;;16.60;91.80;;;;;;5071423;28;20446;-48
2022/02/18 02:08:27;;;;;;;22.17;21.27;;;16.60;92.00;;;;;;5071486;28;20458;-46
2022/02/18 02:10:54;;;;;;;22.30;21.30;;;16.60;92.20;;;;;;5071643;28;20447;-45
2022/02/18 02:13:29;;;;;;;22.83;21.70;;;16.60;92.10;;;;;;5051167;28;20501;-50
2022/02/18 02:15:56;;;;;;;21.70;20.70;;;16.70;92.00;;;;;;5051470;28;20479;-47
2022/02/18 02:18:24;;;;;;;21.87;20.90;;;16.70;92.20;;;;;;5050876;28;20824;-49
2022/02/18 02:20:51;;;;;;;22.37;21.27;;;16.60;92.10;;;;;;5051433;28;20452;-48
2022/02/18 02:23:19;;;;;;;22.10;21.10;;;16.60;92.20;;;;;;5050905;28;20571;-47
2022/02/18 02:25:47;;;;;;;22.50;21.43;;;16.60;92.10;;;;;;5051388;28;20444;-47
2022/02/18 02:28:14;;;;;;;22.10;21.07;;;16.70;92.20;;;;;;5051160;28;20445;-53
2022/02/18 02:30:41;;;;;;;22.30;21.30;;;16.70;92.10;;;;;;5051163;28;20459;-48
2022/02/18 02:33:08;;;;;;;21.80;20.80;;;16.70;92.30;;;;;;5051081;28;20460;-47
2022/02/18 02:35:35;;;;;;;22.80;21.80;;;16.70;92.30;;;;;;5051154;28;20444;-46
2022/02/18 02:38:03;;;;;;;21.93;21.00;;;16.70;92.50;;;;;;5051048;28;20852;-51
2022/02/18 02:40:31;;;;;;;22.70;21.60;;;16.70;92.40;;;;;;5051099;28;20456;-50
2022/02/18 02:42:58;;;;;;;21.80;20.90;;;16.70;92.50;;;;;;5050745;28;20482;-46
2022/02/18 02:45:25;;;;;;;22.30;21.20;;;16.70;92.50;;;;;;5050989;28;20440;-48
2022/02/18 02:47:52;;;;;;;21.83;20.83;;;16.70;92.50;;;;;;5050988;28;20443;-46
2022/02/18 02:50:19;;;;;;;22.37;21.40;;;16.70;92.60;;;;;;5050947;28;20451;-46
2022/02/18 02:52:46;;;;;;;22.10;21.10;;;16.70;92.60;;;;;;5051132;28;20464;-51
2022/02/18 02:55:13;;;;;;;21.73;20.83;;;16.70;92.60;;;;;;5051013;28;20805;-48
2022/02/18 02:57:42;;;;;;;22.03;21.03;;;16.70;92.50;;;;;;5052584;28;20991;-47
2022/02/18 03:00:11;;;;;;;22.03;21.03;;;16.70;92.50;;;;;;5054608;28;20453;-46
2022/02/18 03:02:38;;;;;;;22.30;21.40;;;16.70;92.30;;;;;;5054387;28;20848;-46
2022/02/18 03:05:06;;;;;;;21.50;20.50;;;16.70;92.60;;;;;;5054306;28;20822;-49
2022/02/18 03:07:33;;;;;;;22.17;21.17;;;16.70;92.90;;;;;;5054440;28;20452;-47
2022/02/18 03:10:00;;;;;;;21.60;20.70;;;16.70;92.50;;;;;;5054409;28;20517;-47
2022/02/18 03:12:27;;;;;;;21.60;20.60;;;16.70;92.60;;;;;;5054293;28;20471;-50
2022/02/18 03:14:55;;;;;;;22.10;21.00;;;16.70;92.60;;;;;;5054242;28;20440;-47
2022/02/18 03:17:22;;;;;;;22.73;21.43;;;16.70;92.50;;;;;;5054300;28;20447;-51
2022/02/18 03:19:49;;;;;;;21.60;20.60;;;16.70;92.50;;;;;;5054158;28;20444;-52
2022/02/18 03:22:16;;;;;;;21.83;20.83;;;16.70;92.70;;;;;;5054165;28;20484;-50
2022/02/18 03:24:43;;;;;;;21.80;20.80;;;16.70;92.60;;;;;;5054156;28;20488;-50
2022/02/18 03:27:10;;;;;;;22.07;21.10;;;16.60;92.70;;;;;;5053914;28;20444;-49
2022/02/18 03:29:38;;;;;;;22.43;21.33;;;16.60;92.80;;;;;;5054017;28;20450;-47
2022/02/18 03:32:07;;;;;;;21.50;20.60;;;16.60;92.90;;;;;;5054036;28;20475;-49
2022/02/18 03:34:34;;;;;;;22.10;21.10;;;16.60;92.90;;;;;;5053973;28;20523;-47
2022/02/18 03:37:01;;;;;;;21.67;20.70;;;16.60;93.00;;;;;;5053951;28;20479;-47
2022/02/18 03:39:28;;;;;;;21.90;20.80;;;16.70;93.10;;;;;;5053796;28;20444;-46
2022/02/18 03:41:55;;;;;;;22.73;21.63;;;16.70;93.10;;;;;;5053767;28;20468;-47
2022/02/18 03:44:22;;;;;;;21.90;20.80;;;16.70;93.20;;;;;;5053508;28;20849;-47
2022/02/18 03:46:48;;;;;;;22.03;21.10;;;16.70;93.10;;;;;;5053671;28;20453;-48
2022/02/18 03:49:16;;;;;;;21.50;20.60;;;16.70;93.10;;;;;;5053705;28;20455;-48
2022/02/18 03:51:43;;;;;;;22.47;21.27;;;16.70;93.10;;;;;;5053663;28;20471;-47
2022/02/18 03:54:10;;;;;;;22.73;21.63;;;16.70;93.40;;;;;;5053491;28;20814;-45
2022/02/18 03:56:36;;;;;;;22.27;21.20;;;16.70;93.10;;;;;;5053643;28;20448;-47
2022/02/18 03:59:03;;;;;;;21.60;20.60;;;16.70;93.10;;;;;;5053534;28;20453;-51
2022/02/18 04:01:30;;;;;;;21.57;20.57;;;16.70;93.20;;;;;;5053411;28;20480;-51
2022/02/18 04:03:57;;;;;;;22.20;21.20;;;16.70;93.30;;;;;;5053267;28;20491;-46
2022/02/18 04:06:25;;;;;;;22.67;21.57;;;16.70;93.30;;;;;;5053507;28;20448;-48
2022/02/18 04:08:53;;;;;;;22.80;21.70;;;16.70;93.70;;;;;;5053252;28;20459;-48
2022/02/18 04:11:19;;;;;;;23.03;21.73;;;16.70;93.40;;;;;;5053214;28;20828;-46
2022/02/18 04:13:46;;;;;;;22.20;21.20;;;16.70;93.40;;;;;;5053202;28;20437;-47
2022/02/18 04:16:13;;;;;;;22.33;21.33;;;16.70;93.40;;;;;;5053271;28;20475;-50
2022/02/18 04:18:40;;;;;;;21.60;20.60;;;16.70;93.40;;;;;;5053068;28;20452;-47
2022/02/18 04:21:07;;;;;;;22.73;21.53;;;16.70;93.40;;;;;;5053107;28;20441;-47
2022/02/18 04:23:35;;;;;;;22.50;21.17;;;16.70;93.40;;;;;;5052887;28;20506;-46
2022/02/18 04:26:03;;;;;;;22.53;21.43;;;16.70;93.50;;;;;;5052967;28;20445;-46
2022/02/18 04:28:29;;;;;;;22.20;21.20;;;16.70;93.50;;;;;;5052857;28;20453;-51
2022/02/18 04:30:56;;;;;;;22.70;21.60;;;16.80;93.60;;;;;;5052881;28;20448;-49
2022/02/18 04:33:23;;;;;;;22.33;21.23;;;16.80;93.70;;;;;;5052665;28;20448;-50
2022/02/18 04:35:50;;;;;;;22.00;20.90;;;16.80;93.70;;;;;;5052861;28;20451;-46
2022/02/18 04:38:16;;;;;;;22.40;21.40;;;16.80;93.80;;;;;;5052754;28;20452;-47
2022/02/18 04:40:44;;;;;;;22.57;21.30;;;16.80;93.80;;;;;;5052559;28;20879;-47
2022/02/18 04:43:11;;;;;;;22.50;21.40;;;16.80;93.90;;;;;;5052534;28;20464;-47
2022/02/18 04:45:38;;;;;;;21.90;20.83;;;16.80;93.90;;;;;;5052590;28;20854;-46
2022/02/18 04:48:05;;;;;;;21.87;20.77;;;16.80;93.90;;;;;;5052553;28;20448;-46
2022/02/18 04:50:32;;;;;;;23.40;22.20;;;16.80;94.10;;;;;;5052424;28;20452;-48
2022/02/18 04:52:59;;;;;;;22.43;21.33;;;16.80;94.50;;;;;;5052302;28;20468;-47
2022/02/18 04:55:25;;;;;;;22.97;21.60;;;16.80;94.70;;;;;;5052427;28;20444;-47
2022/02/18 04:57:54;;;;;;;22.37;21.27;;;16.80;94.70;;;;;;5052401;28;20455;-50
2022/02/18 05:00:20;;;;;;;23.00;21.90;;;16.80;94.80;;;;;;5052364;28;20787;-47
2022/02/18 05:02:48;;;;;;;22.30;21.27;;;16.80;94.80;;;;;;5052116;28;20468;-50
2022/02/18 05:05:14;;;;;;;22.83;21.73;;;16.80;94.80;;;;;;5052140;28;20510;-50
2022/02/18 05:07:42;;;;;;;23.10;21.67;;;16.80;94.90;;;;;;5052164;28;20444;-48
2022/02/18 05:10:09;;;;;;;22.43;21.33;;;16.90;94.80;;;;;;5052190;28;20523;-46
2022/02/18 05:12:36;;;;;;;22.10;21.03;;;16.90;94.70;;;;;;5052040;28;20487;-49
2022/02/18 05:15:05;;;;;;;22.37;21.27;;;16.90;94.70;;;;;;5051944;28;20809;-47
2022/02/18 05:17:32;;;;;;;23.67;22.37;;;16.90;94.80;;;;;;5052073;28;20445;-46
2022/02/18 05:19:59;;;;;;;22.17;21.07;;;16.90;94.70;;;;;;5051567;28;20448;-47
2022/02/18 05:22:26;;;;;;;23.60;21.90;;;16.90;94.80;;;;;;5051732;28;20475;-48
2022/02/18 05:24:53;;;;;;;27.17;24.60;;;16.90;98.20;;;;;;5051944;28;20853;-46
2022/02/18 05:27:19;;;;;;;26.00;23.37;;;17.00;99.90;;;;;;5051951;28;20565;-48
2022/02/18 05:29:46;;;;;;;24.53;22.13;;;17.10;99.90;;;;;;5051706;28;20449;-47
2022/02/18 05:32:14;;;;;;;23.77;19.33;;;17.20;99.90;;;;;;5051786;28;20472;-47
2022/02/18 05:34:41;;;;;;;24.20;17.63;;;17.30;99.90;;;;;;5051541;28;20447;-49
2022/02/18 05:37:09;;;;;;;30.30;15.70;;;17.30;99.90;;;;;;5051644;28;20451;-52
2022/02/18 05:39:35;;;;;;;20.03;14.03;;;17.40;99.90;;;;;;5051674;28;20813;-46
2022/02/18 05:42:03;;;;;;;29.57;11.20;;;17.40;99.90;;;;;;5051459;28;20864;-46
2022/02/18 05:44:32;;;;;;;20.67;10.23;;;17.50;99.90;;;;;;5051778;28;20480;-48
2022/02/18 05:46:59;;;;;;;23.50;10.80;;;17.60;99.90;;;;;;5051917;28;20647;-47
2022/02/18 05:49:28;;;;;;;21.93;11.37;;;17.50;99.90;;;;;;5051465;28;20987;-51
2022/02/18 05:51:55;;;;;;;19.80;15.80;;;17.60;99.90;;;;;;5051190;28;20464;-47
2022/02/18 05:54:21;;;;;;;21.63;19.40;;;17.70;99.90;;;;;;5051512;28;20472;-49
2022/02/18 05:56:50;;;;;;;22.60;20.73;;;17.90;99.90;;;;;;5051526;28;20451;-49
2022/02/18 05:59:17;;;;;;;24.40;22.17;;;18.10;99.90;;;;;;5051464;28;21007;-48
2022/02/18 06:01:44;;;;;;;26.27;23.70;;;18.20;99.90;;;;;;5051130;28;20981;-46
2022/02/18 06:04:11;;;;;;;24.13;22.20;;;18.40;99.90;;;;;;5051068;28;20566;-46
2022/02/18 06:06:39;;;;;;;24.57;22.80;;;18.60;99.90;;;;;;5051659;28;20925;-47
2022/02/18 06:09:06;;;;;;;24.53;22.83;;;18.80;99.90;;;;;;5051127;28;20444;-50
2022/02/18 06:11:33;;;;;;;23.43;21.90;;;18.90;99.90;;;;;;5051181;28;20464;-52
2022/02/18 06:14:00;;;;;;;25.17;23.10;;;19.10;99.90;;;;;;5051178;28;20449;-45
2022/02/18 06:16:27;;;;;;;23.10;21.63;;;19.10;99.90;;;;;;5051302;28;20440;-48
2022/02/18 06:18:54;;;;;;;23.93;22.03;;;19.30;99.90;;;;;;5050968;28;20977;-49
2022/02/18 06:21:21;;;;;;;23.57;21.80;;;19.40;99.90;;;;;;5050760;28;21004;-42
2022/02/18 06:23:49;;;;;;;23.00;21.70;;;19.50;99.90;;;;;;5050028;28;20531;-46
2022/02/18 06:26:16;;;;;;;24.00;22.23;;;19.50;99.90;;;;;;5051253;28;20448;-44
2022/02/18 06:28:43;;;;;;;24.00;22.27;;;19.60;99.90;;;;;;5050889;28;20453;-46
2022/02/18 06:31:10;;;;;;;25.60;23.70;;;19.60;99.90;;;;;;5051209;28;20459;-48
2022/02/18 06:33:37;;;;;;;24.03;22.00;;;19.60;99.90;;;;;;5054576;28;20444;-46
2022/02/18 06:36:04;;;;;;;24.53;22.90;;;19.60;99.90;;;;;;5054979;28;20445;-49
2022/02/18 06:38:32;;;;;;;23.90;22.30;;;19.60;99.90;;;;;;5055027;28;20445;-44
2022/02/18 06:41:00;;;;;;;24.47;22.87;;;19.70;99.60;;;;;;5054861;28;20448;-44
2022/02/18 06:43:26;;;;;;;24.87;23.37;;;19.70;99.20;;;;;;5054849;28;20444;-44
2022/02/18 06:45:53;;;;;;;23.60;22.37;;;19.70;98.80;;;;;;5054861;28;20480;-44
2022/02/18 06:48:21;;;;;;;22.90;21.80;;;19.70;98.40;;;;;;5054643;28;20450;-43
2022/02/18 06:50:48;;;;;;;27.80;26.30;;;19.70;98.00;;;;;;5054662;28;20555;-44
2022/02/18 06:53:15;;;;;;;25.80;24.40;;;19.70;97.70;;;;;;5054866;28;20539;-45
2022/02/18 06:55:42;;;;;;;27.30;25.90;;;19.80;97.30;;;;;;5054623;28;20440;-44
2022/02/18 06:58:10;;;;;;;28.23;26.67;;;19.80;96.90;;;;;;5054527;28;20966;-44
2022/02/18 07:00:37;;;;;;;27.60;26.10;;;19.80;96.50;;;;;;5054579;28;20451;-44
2022/02/18 07:03:07;;;;;;;25.60;24.00;;;19.80;96.20;;;;;;5054486;28;20483;-45
2022/02/18 07:05:34;;;;;;;25.20;23.90;;;19.80;95.90;;;;;;5054426;28;20480;-45
2022/02/18 07:08:01;;;;;;;25.10;23.70;;;19.80;95.50;;;;;;5054294;28;20934;-47
2022/02/18 07:10:28;;;;;;;26.60;25.20;;;19.80;95.30;;;;;;5054417;28;20779;-46
2022/02/18 07:12:55;;;;;;;27.60;26.00;;;19.80;95.00;;;;;;5054316;28;20471;-47
2022/02/18 07:15:24;;;;;;;26.50;25.00;;;19.80;94.70;;;;;;5054238;28;20455;-45
2022/02/18 07:17:51;;;;;;;28.80;26.77;;;19.70;94.50;;;;;;5054162;28;20459;-47
2022/02/18 07:20:18;;;;;;;25.67;24.17;;;19.80;94.30;;;;;;5054274;28;20510;-46
2022/02/18 07:22:45;;;;;;;25.57;24.13;;;19.80;94.00;;;;;;5054056;28;20464;-45
2022/02/18 07:25:14;;;;;;;25.83;24.33;;;19.70;93.80;;;;;;5054105;28;20476;-45
2022/02/18 07:27:40;;;;;;;23.73;22.50;;;19.70;93.90;;;;;;5053926;28;20452;-48
2022/02/18 07:30:10;;;;;;;24.60;23.40;;;19.70;93.30;;;;;;5053832;28;20448;-45
2022/02/18 07:32:39;;;;;;;25.10;23.90;;;19.70;93.20;;;;;;5054237;28;20464;-44
2022/02/18 07:35:07;;;;;;;25.50;24.10;;;19.70;93.00;;;;;;5054338;28;20817;-44
2022/02/18 07:37:34;;;;;;;26.00;24.60;;;19.60;92.70;;;;;;5054397;28;20452;-49
2022/02/18 07:40:01;;;;;;;25.13;23.63;;;19.60;92.60;;;;;;5053830;28;20807;-45
2022/02/18 07:42:28;;;;;;;26.57;25.17;;;19.60;92.50;;;;;;5053502;28;20485;-46
2022/02/18 07:44:55;;;;;;;26.30;25.03;;;19.60;92.30;;;;;;5053734;28;20484;-46
2022/02/18 07:47:22;;;;;;;25.83;24.53;;;19.60;92.10;;;;;;5053680;28;20448;-45
2022/02/18 07:49:50;;;;;;;25.80;24.47;;;19.60;92.00;;;;;;5053692;28;20539;-44
2022/02/18 07:52:17;;;;;;;27.37;25.87;;;19.50;91.70;;;;;;5053697;28;20885;-46
2022/02/18 07:54:44;;;;;;;25.57;24.27;;;19.50;91.60;;;;;;5053666;28;20447;-45
2022/02/18 07:57:10;;;;;;;27.17;25.70;;;19.50;91.40;;;;;;5053539;28;20459;-45
2022/02/18 07:59:38;;;;;;;26.80;25.47;;;19.50;91.20;;;;;;5053462;28;20444;-46
2022/02/18 08:02:06;;;;;;;27.77;26.10;;;19.50;91.10;;;;;;5054119;28;20468;-47
2022/02/18 08:04:33;;;;;;;25.80;24.50;;;19.50;91.00;;;;;;5053364;28;20832;-45
2022/02/18 08:07:01;;;;;;;25.80;24.40;;;19.40;90.80;;;;;;5053308;28;20645;-45
2022/02/18 08:09:28;;;;;;;24.93;23.73;;;19.40;90.70;;;;;;5053162;28;20440;-44
2022/02/18 08:11:54;;;;;;;25.83;24.33;;;19.40;90.50;;;;;;5053077;28;20461;-48
2022/02/18 08:14:21;;;;;;;26.83;25.47;;;19.40;90.40;;;;;;5053110;28;20531;-45
2022/02/18 08:16:48;;;;;;;27.77;26.13;;;19.40;90.30;;;;;;5053155;28;20520;-44
2022/02/18 08:19:15;;;;;;;26.60;25.30;;;19.40;90.10;;;;;;5052886;28;20440;-44
2022/02/18 08:21:41;;;;;;;24.00;22.87;;;19.40;90.00;;;;;;5052960;28;20874;-45
2022/02/18 08:24:10;;;;;;;25.00;23.67;;;19.30;89.70;;;;;;5053050;28;20809;-45
2022/02/18 08:26:37;;;;;;;23.83;22.40;;;19.30;89.40;;;;;;5053195;28;20846;-45
2022/02/18 08:29:04;;;;;;;24.17;22.77;;;19.30;89.10;;;;;;5052863;28;20444;-45
2022/02/18 08:31:30;;;;;;;25.10;23.70;;;19.30;89.00;;;;;;5052949;28;20465;-47
2022/02/18 08:33:57;;;;;;;24.07;22.80;;;19.20;88.80;;;;;;5052843;28;20441;-44
2022/02/18 08:36:24;;;;;;;28.10;26.67;;;19.20;88.60;;;;;;5052683;28;20794;-44
2022/02/18 08:38:50;;;;;;;24.87;23.57;;;19.20;88.70;;;;;;5052488;28;20448;-44
2022/02/18 08:41:18;;;;;;;25.00;23.60;;;19.10;88.40;;;;;;5052793;28;20468;-44
2022/02/18 08:43:45;;;;;;;22.87;21.77;;;19.10;89.00;;;;;;5052670;28;20452;-48
2022/02/18 08:46:12;;;;;;;25.87;24.57;;;19.10;88.00;;;;;;5052453;28;20563;-45
2022/02/18 08:48:39;;;;;;;24.70;23.50;;;19.10;87.80;;;;;;5052292;28;20445;-47
2022/02/18 08:51:05;;;;;;;24.50;23.30;;;19.10;87.70;;;;;;5052438;28;20459;-45
2022/02/18 08:53:32;;;;;;;24.80;23.60;;;19.00;87.50;;;;;;5052391;28;20446;-45
2022/02/18 08:55:59;;;;;;;25.37;24.17;;;19.00;87.60;;;;;;5051673;28;21046;-44
2022/02/18 08:58:28;;;;;;;24.27;23.07;;;19.00;87.80;;;;;;5052251;28;20952;-44
2022/02/18 09:00:55;;;;;;;26.80;25.43;;;19.10;88.70;;;;;;5052270;28;20524;-44
2022/02/18 09:03:22;;;;;;;26.27;24.87;;;19.10;87.90;;;;;;5052044;28;20458;-45
2022/02/18 09:05:48;;;;;;;27.23;25.80;;;19.10;87.80;;;;;;5052050;28;20476;-49
2022/02/18 09:08:16;;;;;;;26.33;24.93;;;19.20;87.40;;;;;;5051936;28;20444;-45
2022/02/18 09:10:44;;;;;;;26.83;25.43;;;19.20;86.70;;;;;;5051991;28;20448;-46
2022/02/18 09:13:11;;;;;;;26.63;25.30;;;19.30;86.00;;;;;;5052111;28;20622;-46
2022/02/18 09:15:39;;;;;;;28.60;26.87;;;19.30;85.30;;;;;;5052130;28;20444;-47
2022/02/18 09:18:06;;;;;;;27.00;25.63;;;19.30;84.80;;;;;;5051830;28;20448;-44
2022/02/18 09:20:33;;;;;;;25.77;24.37;;;19.40;84.30;;;;;;5051926;28;20450;-45
2022/02/18 09:23:00;;;;;;;28.30;26.83;;;19.40;83.70;;;;;;5051852;28;20888;-47
2022/02/18 09:25:27;;;;;;;27.50;26.03;;;19.40;83.20;;;;;;5051846;28;20496;-45
2022/02/18 09:27:53;;;;;;;28.27;26.87;;;19.40;82.60;;;;;;5051624;28;20445;-45
2022/02/18 09:30:20;;;;;;;28.00;26.60;;;19.50;82.20;;;;;;5051778;28;20452;-43
2022/02/18 09:32:49;;;;;;;27.90;26.57;;;19.50;81.80;;;;;;5051684;28;20464;-46
2022/02/18 09:35:15;;;;;;;27.80;26.40;;;19.50;81.40;;;;;;5051843;28;20444;-47
2022/02/18 09:37:42;;;;;;;28.07;26.73;;;19.50;80.90;;;;;;5051541;28;20448;-44
2022/02/18 09:40:12;;;;;;;28.20;26.67;;;19.50;80.70;;;;;;5051626;28;20441;-48
2022/02/18 09:42:42;;;;;;;27.67;26.23;;;19.50;80.30;;;;;;5051905;28;20475;-46
2022/02/18 09:45:11;;;;;;;24.53;23.33;;;19.50;80.00;;;;;;5051563;28;20484;-45
2022/02/18 09:47:38;;;;;;;24.80;23.30;;;19.50;79.70;;;;;;5051579;28;20471;-46
2022/02/18 09:50:07;;;;;;;26.40;24.80;;;19.40;79.40;;;;;;5051420;28;20444;-47
2022/02/18 09:52:34;;;;;;;26.67;25.17;;;19.50;79.30;;;;;;5051458;28;20472;-45
2022/02/18 09:55:01;;;;;;;25.53;24.13;;;19.50;79.00;;;;;;5051520;28;20452;-46
2022/02/18 09:57:28;;;;;;;24.37;23.07;;;19.50;78.80;;;;;;5051556;28;20444;-44
2022/02/18 09:59:55;;;;;;;25.70;24.30;;;19.50;78.60;;;;;;5051280;28;20814;-44
2022/02/18 10:02:23;;;;;;;25.73;24.50;;;19.50;78.40;;;;;;5051126;28;20495;-45
2022/02/18 10:04:50;;;;;;;27.80;26.20;;;19.50;78.20;;;;;;5051377;28;20809;-44
2022/02/18 10:07:18;;;;;;;28.20;26.50;;;19.40;77.90;;;;;;5054381;28;20483;-45
2022/02/18 10:09:47;;;;;;;26.33;25.03;;;19.40;77.80;;;;;;5055302;28;20449;-44
2022/02/18 10:12:15;;;;;;;25.10;23.90;;;19.40;77.60;;;;;;5055350;28;20499;-44
2022/02/18 10:14:56;;;;;;;25.23;23.97;;;19.40;77.40;;;;;;5055382;28;20455;-48
2022/02/18 10:17:24;;;;;;;25.90;24.63;;;19.40;77.20;;;;;;5055336;28;20451;-44
2022/02/18 10:19:52;;;;;;;24.60;23.37;;;19.40;77.10;;;;;;5055134;28;20523;-45
2022/02/18 10:22:28;;;;;;;25.30;24.00;;;19.40;77.10;;;;;;5055205;28;20471;-44
2022/02/18 10:24:55;;;;;;;23.43;22.33;;;19.30;76.80;;;;;;5055232;28;20451;-45
2022/02/18 10:27:23;;;;;;;23.53;22.33;;;19.30;76.70;;;;;;5055112;28;20483;-45
2022/02/18 10:29:58;;;;;;;24.50;23.30;;;19.30;76.60;;;;;;5054794;28;20452;-43
2022/02/18 10:32:25;;;;;;;24.13;22.93;;;19.30;76.60;;;;;;5054989;28;20467;-44
2022/02/18 10:34:53;;;;;;;24.63;23.33;;;19.30;76.60;;;;;;5055100;28;20449;-47
2022/02/18 10:37:21;;;;;;;25.23;24.03;;;19.30;76.50;;;;;;5055051;28;21114;-45
2022/02/18 10:39:49;;;;;;;25.50;24.20;;;19.20;76.40;;;;;;5054765;28;20490;-46
2022/02/18 10:42:17;;;;;;;24.20;23.00;;;19.20;76.40;;;;;;5054893;28;20570;-44
2022/02/18 10:44:44;;;;;;;26.37;25.03;;;19.20;76.40;;;;;;5054781;28;20448;-45
2022/02/18 10:47:21;;;;;;;26.67;25.37;;;19.20;76.40;;;;;;5054724;28;20480;-48
2022/02/18 10:49:48;;;;;;;26.03;24.83;;;19.20;76.60;;;;;;5053886;28;21060;-45
2022/02/18 10:52:17;;;;;;;23.60;22.40;;;19.20;77.00;;;;;;5054745;28;20470;-47
2022/02/18 10:54:47;;;;;;;23.80;22.60;;;19.30;78.10;;;;;;5054669;28;20445;-45
2022/02/18 10:57:17;;;;;;;25.10;23.80;;;19.30;79.40;;;;;;5054649;28;20454;-44
2022/02/18 10:59:44;;;;;;;25.03;23.73;;;19.40;80.50;;;;;;5054271;28;20448;-44
2022/02/18 11:02:11;;;;;;;24.50;23.20;;;19.40;80.90;;;;;;5054433;28;20487;-42
2022/02/18 11:04:38;;;;;;;23.50;22.30;;;19.50;81.20;;;;;;5054549;28;20447;-46
2022/02/18 11:07:12;;;;;;;23.10;22.00;;;19.60;82.00;;;;;;5054329;28;20491;-46
2022/02/18 11:09:39;;;;;;;24.67;23.27;;;19.60;82.90;;;;;;5054168;28;20926;-47
2022/02/18 11:12:08;;;;;;;23.40;22.20;;;19.60;85.20;;;;;;5054332;28;20467;-45
2022/02/18 11:14:37;;;;;;;24.97;23.63;;;19.60;86.50;;;;;;5054368;28;20929;-45
2022/02/18 11:17:05;;;;;;;24.50;23.10;;;19.60;87.40;;;;;;5054133;28;20449;-44
2022/02/18 11:19:32;;;;;;;24.23;22.97;;;19.70;90.10;;;;;;5053040;28;20961;-45
2022/02/18 11:22:01;;;;;;;23.60;22.40;;;19.70;90.90;;;;;;5054200;28;20461;-44
2022/02/18 11:24:29;;;;;;;23.20;22.00;;;19.70;91.60;;;;;;5054164;28;20455;-46
2022/02/18 11:26:59;;;;;;;23.90;22.70;;;19.70;92.20;;;;;;5054109;28;20483;-45
2022/02/18 11:29:26;;;;;;;24.10;22.70;;;19.70;92.40;;;;;;5053615;28;20455;-48
2022/02/18 11:32:00;;;;;;;24.10;22.77;;;19.80;92.50;;;;;;5054089;28;20479;-44
2022/02/18 11:35:05;;;;;;;25.10;23.70;;;19.80;92.70;;;;;;5054030;28;20455;-47
2022/02/18 11:37:48;;;;;;;24.33;23.03;;;19.80;92.00;;;;;;5053181;28;20929;-45
2022/02/18 11:40:34;;;;;;;24.13;22.73;;;19.80;91.90;;;;;;5053927;28;20463;-46
2022/02/18 11:43:29;;;;;;;24.40;23.10;;;19.80;91.90;;;;;;5053853;28;20464;-45
2022/02/18 11:45:58;;;;;;;23.20;21.67;;;19.80;91.50;;;;;;5053704;28;20511;-44
2022/02/18 11:48:42;;;;;;;23.43;22.23;;;19.80;91.10;;;;;;5053270;28;20444;-46
2022/02/18 11:51:11;;;;;;;23.37;22.27;;;19.80;90.80;;;;;;5051094;28;20945;-44
2022/02/18 11:53:39;;;;;;;23.53;22.17;;;19.80;90.30;;;;;;5053636;28;20459;-44
2022/02/18 11:56:06;;;;;;;22.27;20.87;;;19.80;90.00;;;;;;5053467;28;20866;-47
2022/02/18 11:58:49;;;;;;;21.80;20.80;;;19.80;89.60;;;;;;5053180;28;20959;-43
2022/02/18 12:01:15;;;;;;;23.37;22.27;;;19.80;88.70;;;;;;5053212;28;20444;-46
2022/02/18 12:04:16;;;;;;;21.90;20.90;;;19.90;88.20;;;;;;5053442;28;20997;-47
2022/02/18 12:06:44;;;;;;;22.07;21.07;;;19.90;87.30;;;;;;5053175;28;20545;-44
2022/02/18 12:09:10;;;;;;;23.10;22.00;;;19.80;86.00;;;;;;5053059;28;20452;-45
2022/02/18 12:11:44;;;;;;;23.70;22.60;;;19.80;85.60;;;;;;5053200;28;20469;-46
2022/02/18 12:14:12;;;;;;;24.00;22.90;;;19.80;84.40;;;;;;5053233;28;20444;-47
2022/02/18 12:16:40;;;;;;;22.30;21.20;;;19.80;83.90;;;;;;5053273;28;20448;-44
2022/02/18 12:19:13;;;;;;;22.23;21.23;;;19.90;83.50;;;;;;5052756;28;20444;-44
2022/02/18 12:21:58;;;;;;;22.33;21.23;;;19.90;82.90;;;;;;5052981;28;20469;-44
2022/02/18 12:24:42;;;;;;;23.90;22.80;;;19.90;82.10;;;;;;5052083;28;20992;-44
2022/02/18 12:27:28;;;;;;;23.63;22.53;;;19.90;81.50;;;;;;5052786;28;20484;-44
2022/02/18 12:29:56;;;;;;;24.43;23.33;;;19.90;80.80;;;;;;5051673;28;20444;-44
2022/02/18 12:32:23;;;;;;;24.47;23.17;;;19.90;80.10;;;;;;5052704;28;20475;-44